0J4 weather

Florala Municipal Airport
Florala, Alabama, United States

Public forecast

Using degrees Fahrenheit for public forecast. Weather courtesy of forecast.io.

METAR (pilot weather report)

Retrieved 2018/09/21 18:58 UTC (27 minutes ago):

K0J4 211858Z AUTO VRB05KT 10SM SCT037 BKN055 32/21 A3006 RMK AO2 SLP175 T03170211 $

TAF (pilot weather forecast)

Forecast is more than 6 hours old.

Closest forecast is Duke Field, 25.9 nm (48.0 km) SSW. Retrieved 2018/09/21 09:07 UTC (10 hours ago):

TAF KEGI 210900Z 2109/2215 16003KT 9999 SCT020 QNH3002INS BECMG 2115/2116 09006KT 9999 SCT030 SCT250 QNH3000INS TEMPO 2119/2123 17010G15KT 9000 -SHRA VCTS SCT025CB BKN250 BECMG 2122/2123 14009KT 9999 SCT030 SCT250 QNH2998INS BECMG 2203/2204 13003KT 9999 FEW015 FEW050 QNH3006INS TX33/2116Z TN21/2111Z LAST NO AMDS AFT 2109 NEXT 2113